Marco Polo — C6JZ7 — position and weather

sailwx.info

Track history (hours):
 
Tides and Currents Weather Stations Pressure Air Temp Water Temp Dewpoint Dewpoint Depression Visibility Wind Speed Wind Dir Waves Ship Positions

Marco Polo

Operator: Orient Lines

Last reported at 2016-May-05 23:33 UTC. Time now 2016-May-05 23:53 UTC.
Position N 54°48' E 013°02'.

Type: Ship. MMSI: 308691456.

Date/timePositionNaut miles runAvg speedWind from/ knotsBaromVisibWave heightAir tempDewpointWater temp
2016-May-05 23:33N 54°48' E 013°02'1616.2
2016-May-05 22:33N 54°42' E 012°36'1515.2
2016-May-05 21:33N 54°31' E 012°17'1616.2
2016-May-05 20:33N 54°17' E 012°04'6 3.1
2016-May-05 18:29N 54°11' E 012°06'0 0.0
2016-May-05 15:14N 54°11' E 012°06'0 0.0
2016-May-05 14:32N 54°11' E 012°06'0 0.0
2016-May-05 12:14N 54°11' E 012°06'0 0.0
2016-May-05 08:29N 54°11' E 012°06'0 0.0
2016-May-05 07:29N 54°11' E 012°06'0 0.0
2016-May-05 05:19N 54°11' E 012°06'4 5.8
2016-May-05 04:33N 54°14' E 012°02'1312.7
2016-May-05 03:34N 54°22' E 011°45'1514.7
2016-May-05 02:33N 54°30' E 011°24'1515.1
2016-May-05 01:33N 54°38' E 011°02'1413.8
2016-May-05 00:33N 54°51' E 010°52'1515.1
2016-May-04 23:34N 55°05' E 011°02'1514.5
2016-May-04 22:32N 55°19' E 011°02'3215.6
2016-May-04 20:30N 55°50' E 010°50'1916.3
2016-May-04 19:20N 56°08' E 011°04'1516.6
2016-May-04 18:25N 56°23' E 011°05'1415.6
2016-May-04 17:33N 56°36' E 011°02'1212.5
2016-May-04 16:33N 56°48' E 010°53'2412.2
2016-May-04 14:33N 56°59' E 010°13'10 9.5
2016-May-04 13:33N 57°03' E 009°58'0 0.3
2016-May-04 12:31N 57°03' E 009°57'0 0.0
2016-May-04 11:28N 57°03' E 009°57'0 0.0
2016-May-04 10:31N 57°03' E 009°57'0 0.0
2016-May-04 09:31N 57°03' E 009°57'0 0.0
2016-May-04 08:31N 57°03' E 009°57'0 0.0
2016-May-04 07:25N 57°03' E 009°57'0 0.5
2016-May-04 06:33N 57°03' E 009°56'9 8.5
2016-May-04 05:31N 56°60' E 010°11'1010.3
2016-May-04 04:33N 56°56' E 010°28'1010.1
2016-May-04 03:32N 56°50' E 010°44'6 6.1
2016-May-04 02:28N 56°56' E 010°50'1213.1
2016-May-04 01:33N 57°08' E 010°46'1916.2
2016-May-04 00:22N 57°27' E 010°43'1315.3
2016-May-03 23:32N 57°40' E 010°45'1311.9
2016-May-03 22:28N 57°46' E 010°24'1617.5
2016-May-03 21:33N 57°40' E 009°56'13216.5
2016-May-03 13:32N 56°08' E 007°03'1816.9
2016-May-03 12:29N 55°53' E 006°46'12016.8
2016-May-03 05:20N 54°12' E 004°52'17117.0
2016-May-02 19:17N 51°52' E 002°06'1216.1
2016-May-02 18:34N 51°49' E 001°49'1110.8
2016-May-02 17:33N 51°46' E 001°32'1515.0
2016-May-02 16:32N 51°35' E 001°15'1515.1
2016-May-02 15:33N 51°29' E 000°53'1515.5
2016-May-02 14:33N 51°29' E 000°28'5 4.5
2016-May-02 13:32N 51°27' E 000°22'0 0.0
2016-May-02 12:32N 51°27' E 000°22'0 0.0
2016-May-02 11:32N 51°27' E 000°22'0 0.0
2016-May-02 10:32N 51°27' E 000°22'0 0.0
2016-May-02 09:32N 51°27' E 000°22'0 0.0
2016-May-02 08:32N 51°27' E 000°22'0 0.0
2016-May-02 07:29N 51°27' E 000°22'0 0.0
2016-May-02 06:33N 51°27' E 000°22'9 9.1
2016-May-02 05:33N 51°30' E 000°36'1413.9
2016-May-02 04:33N 51°29' E 000°58'1515.0
2016-May-02 03:33N 51°37' E 001°18'1615.5
2016-May-02 02:33N 51°49' E 001°34'1211.7
2016-May-02 01:34N 51°58' E 001°46'1616.1
2016-May-02 00:33N 52°12' E 001°58'1615.9
2016-May-01 23:33N 52°27' E 002°09'1515.1
2016-May-01 22:33N 52°41' E 002°19'1515.1
2016-May-01 21:33N 52°54' E 002°30'2115.3
2016-May-01 20:13N 53°13' E 002°43'1315.7
2016-May-01 19:22N 53°26' E 002°49'  
2016-Apr-27 19:25N 59°55' E 005°30'7 8.1
2016-Apr-27 18:33N 59°54' E 005°43'8 0.5
2016-Apr-27 03:14N 59°60' E 005°54'1115.8
2016-Apr-27 02:33N 59°52' E 005°40'1615.2
2016-Apr-27 01:30N 59°39' E 005°20'2311.8
2016-Apr-26 23:33N 59°16' E 005°20'1212.3
2016-Apr-26 22:33N 59°04' E 005°20'1818.3
2016-Apr-26 21:33N 58°46' E 005°16'1818.1
2016-Apr-26 20:33N 58°28' E 005°09'  
Track history (hours):
 
Tides and Currents Weather Stations Pressure Air Temp Water Temp Dewpoint Dewpoint Depression Visibility Wind Speed Wind Dir Waves Ship Positions

Marco Polo

Operator: Orient Lines

Last reported at 2016-May-05 23:33 UTC. Time now 2016-May-05 23:53 UTC.
Position N 54°48' E 013°02'.

Type: Ship. MMSI: 308691456.

Date/timePositionNaut miles runAvg speedWind from/ knotsBaromVisibWave heightAir tempDewpointWater temp
2016-May-05 23:33N 54°48' E 013°02'1616.2
2016-May-05 22:33N 54°42' E 012°36'1515.2
2016-May-05 21:33N 54°31' E 012°17'1616.2
2016-May-05 20:33N 54°17' E 012°04'6 3.1
2016-May-05 18:29N 54°11' E 012°06'0 0.0
2016-May-05 15:14N 54°11' E 012°06'0 0.0
2016-May-05 14:32N 54°11' E 012°06'0 0.0
2016-May-05 12:14N 54°11' E 012°06'0 0.0
2016-May-05 08:29N 54°11' E 012°06'0 0.0
2016-May-05 07:29N 54°11' E 012°06'0 0.0
2016-May-05 05:19N 54°11' E 012°06'4 5.8
2016-May-05 04:33N 54°14' E 012°02'1312.7
2016-May-05 03:34N 54°22' E 011°45'1514.7
2016-May-05 02:33N 54°30' E 011°24'1515.1
2016-May-05 01:33N 54°38' E 011°02'1413.8
2016-May-05 00:33N 54°51' E 010°52'1515.1
2016-May-04 23:34N 55°05' E 011°02'1514.5
2016-May-04 22:32N 55°19' E 011°02'3215.6
2016-May-04 20:30N 55°50' E 010°50'1916.3
2016-May-04 19:20N 56°08' E 011°04'1516.6
2016-May-04 18:25N 56°23' E 011°05'1415.6
2016-May-04 17:33N 56°36' E 011°02'1212.5
2016-May-04 16:33N 56°48' E 010°53'2412.2
2016-May-04 14:33N 56°59' E 010°13'10 9.5
2016-May-04 13:33N 57°03' E 009°58'0 0.3
2016-May-04 12:31N 57°03' E 009°57'0 0.0
2016-May-04 11:28N 57°03' E 009°57'0 0.0
2016-May-04 10:31N 57°03' E 009°57'0 0.0
2016-May-04 09:31N 57°03' E 009°57'0 0.0
2016-May-04 08:31N 57°03' E 009°57'0 0.0
2016-May-04 07:25N 57°03' E 009°57'0 0.5
2016-May-04 06:33N 57°03' E 009°56'9 8.5
2016-May-04 05:31N 56°60' E 010°11'1010.3
2016-May-04 04:33N 56°56' E 010°28'1010.1
2016-May-04 03:32N 56°50' E 010°44'6 6.1
2016-May-04 02:28N 56°56' E 010°50'1213.1
2016-May-04 01:33N 57°08' E 010°46'1916.2
2016-May-04 00:22N 57°27' E 010°43'1315.3
2016-May-03 23:32N 57°40' E 010°45'1311.9
2016-May-03 22:28N 57°46' E 010°24'1617.5
2016-May-03 21:33N 57°40' E 009°56'13216.5
2016-May-03 13:32N 56°08' E 007°03'1816.9
2016-May-03 12:29N 55°53' E 006°46'12016.8
2016-May-03 05:20N 54°12' E 004°52'17117.0
2016-May-02 19:17N 51°52' E 002°06'1216.1
2016-May-02 18:34N 51°49' E 001°49'1110.8
2016-May-02 17:33N 51°46' E 001°32'1515.0
2016-May-02 16:32N 51°35' E 001°15'1515.1
2016-May-02 15:33N 51°29' E 000°53'1515.5
2016-May-02 14:33N 51°29' E 000°28'5 4.5
2016-May-02 13:32N 51°27' E 000°22'0 0.0
2016-May-02 12:32N 51°27' E 000°22'0 0.0
2016-May-02 11:32N 51°27' E 000°22'0 0.0
2016-May-02 10:32N 51°27' E 000°22'0 0.0
2016-May-02 09:32N 51°27' E 000°22'0 0.0
2016-May-02 08:32N 51°27' E 000°22'0 0.0
2016-May-02 07:29N 51°27' E 000°22'0 0.0
2016-May-02 06:33N 51°27' E 000°22'9 9.1
2016-May-02 05:33N 51°30' E 000°36'1413.9
2016-May-02 04:33N 51°29' E 000°58'1515.0
2016-May-02 03:33N 51°37' E 001°18'1615.5
2016-May-02 02:33N 51°49' E 001°34'1211.7
2016-May-02 01:34N 51°58' E 001°46'1616.1
2016-May-02 00:33N 52°12' E 001°58'1615.9
2016-May-01 23:33N 52°27' E 002°09'1515.1
2016-May-01 22:33N 52°41' E 002°19'1515.1
2016-May-01 21:33N 52°54' E 002°30'2115.3
2016-May-01 20:13N 53°13' E 002°43'1315.7
2016-May-01 19:22N 53°26' E 002°49'  
2016-Apr-27 19:25N 59°55' E 005°30'7 8.1
2016-Apr-27 18:33N 59°54' E 005°43'8 0.5
2016-Apr-27 03:14N 59°60' E 005°54'1115.8
2016-Apr-27 02:33N 59°52' E 005°40'1615.2
2016-Apr-27 01:30N 59°39' E 005°20'2311.8
2016-Apr-26 23:33N 59°16' E 005°20'1212.3
2016-Apr-26 22:33N 59°04' E 005°20'1818.3
2016-Apr-26 21:33N 58°46' E 005°16'1818.1
2016-Apr-26 20:33N 58°28' E 005°09'  

Dump ship's entire track history